sensor_id;sensor_type;location;lat;lon;timestamp;P1;durP1;ratioP1;P2;durP2;ratioP2
25609;SDS011;13479;49.044;8.716;2023-12-14T05:02:12;37.08;;;19.13;;
25609;SDS011;13479;49.044;8.716;2023-12-14T05:04:38;40.22;;;18.67;;
25609;SDS011;13479;49.044;8.716;2023-12-14T05:07:03;21.75;;;13.30;;
25609;SDS011;13479;49.044;8.716;2023-12-14T05:09:28;36.45;;;17.33;;
25609;SDS011;13479;49.044;8.716;2023-12-14T05:11:54;34.85;;;17.65;;
25609;SDS011;13479;49.044;8.716;2023-12-14T05:14:19;25.60;;;14.68;;
25609;SDS011;13479;49.044;8.716;2023-12-14T05:16:45;40.30;;;18.55;;
25609;SDS011;13479;49.044;8.716;2023-12-14T05:19:10;33.13;;;16.85;;
25609;SDS011;13479;49.044;8.716;2023-12-14T05:21:35;32.97;;;16.27;;
25609;SDS011;13479;49.044;8.716;2023-12-14T05:24:01;24.30;;;14.17;;
25609;SDS011;13479;49.044;8.716;2023-12-14T05:26:26;20.83;;;12.95;;
25609;SDS011;13479;49.044;8.716;2023-12-14T05:28:51;37.17;;;18.98;;
25609;SDS011;13479;49.044;8.716;2023-12-14T05:31:17;24.63;;;13.65;;
25609;SDS011;13479;49.044;8.716;2023-12-14T05:33:43;21.65;;;12.77;;
25609;SDS011;13479;49.044;8.716;2023-12-14T05:36:08;20.98;;;12.90;;
25609;SDS011;13479;49.044;8.716;2023-12-14T05:38:35;20.63;;;12.90;;
25609;SDS011;13479;49.044;8.716;2023-12-14T05:41:03;30.25;;;15.07;;
25609;SDS011;13479;49.044;8.716;2023-12-14T05:43:28;25.98;;;14.38;;
25609;SDS011;13479;49.044;8.716;2023-12-14T05:45:53;26.95;;;13.73;;
25609;SDS011;13479;49.044;8.716;2023-12-14T05:48:19;31.38;;;16.23;;
25609;SDS011;13479;49.044;8.716;2023-12-14T05:50:44;24.98;;;14.88;;
25609;SDS011;13479;49.044;8.716;2023-12-14T05:53:09;29.77;;;15.45;;
25609;SDS011;13479;49.044;8.716;2023-12-14T05:55:35;30.33;;;17.05;;
25609;SDS011;13479;49.044;8.716;2023-12-14T05:58:00;24.77;;;13.52;;
25609;SDS011;13479;49.044;8.716;2023-12-14T06:00:25;26.77;;;14.43;;
25609;SDS011;13479;49.044;8.716;2023-12-14T06:02:50;23.97;;;13.73;;
25609;SDS011;13479;49.044;8.716;2023-12-14T06:05:16;31.05;;;16.30;;
25609;SDS011;13479;49.044;8.716;2023-12-14T06:07:42;34.57;;;17.07;;
25609;SDS011;13479;49.044;8.716;2023-12-14T06:10:07;43.78;;;19.23;;
25609;SDS011;13479;49.044;8.716;2023-12-14T06:12:32;49.42;;;21.52;;
25609;SDS011;13479;49.044;8.716;2023-12-14T06:14:58;24.80;;;14.23;;
25609;SDS011;13479;49.044;8.716;2023-12-14T06:17:23;45.53;;;19.90;;
25609;SDS011;13479;49.044;8.716;2023-12-14T06:19:48;25.60;;;14.63;;
25609;SDS011;13479;49.044;8.716;2023-12-14T06:22:14;46.08;;;20.58;;
25609;SDS011;13479;49.044;8.716;2023-12-14T06:24:39;37.88;;;18.45;;
25609;SDS011;13479;49.044;8.716;2023-12-14T06:27:05;32.28;;;17.95;;
25609;SDS011;13479;49.044;8.716;2023-12-14T06:29:30;41.72;;;20.00;;
25609;SDS011;13479;49.044;8.716;2023-12-14T06:31:56;39.50;;;19.85;;
25609;SDS011;13479;49.044;8.716;2023-12-14T06:34:21;39.50;;;19.25;;
25609;SDS011;13479;49.044;8.716;2023-12-14T06:36:46;33.85;;;17.35;;
25609;SDS011;13479;49.044;8.716;2023-12-14T06:39:12;30.17;;;16.37;;
25609;SDS011;13479;49.044;8.716;2023-12-14T06:41:38;42.83;;;19.00;;
25609;SDS011;13479;49.044;8.716;2023-12-14T06:44:04;64.90;;;25.57;;
25609;SDS011;13479;49.044;8.716;2023-12-14T06:46:30;52.30;;;21.60;;
25609;SDS011;13479;49.044;8.716;2023-12-14T06:48:55;66.75;;;26.27;;
25609;SDS011;13479;49.044;8.716;2023-12-14T06:51:21;36.55;;;18.50;;
25609;SDS011;13479;49.044;8.716;2023-12-14T06:53:46;69.63;;;25.92;;
25609;SDS011;13479;49.044;8.716;2023-12-14T06:56:12;69.67;;;24.83;;
25609;SDS011;13479;49.044;8.716;2023-12-14T06:58:41;35.93;;;17.80;;
25609;SDS011;13479;49.044;8.716;2023-12-14T07:01:07;45.67;;;21.37;;
25609;SDS011;13479;49.044;8.716;2023-12-14T07:03:39;55.03;;;23.83;;
25609;SDS011;13479;49.044;8.716;2023-12-14T07:06:12;74.83;;;30.93;;
25609;SDS011;13479;49.044;8.716;2023-12-14T07:08:41;44.97;;;22.60;;
25609;SDS011;13479;49.044;8.716;2023-12-14T07:11:10;39.67;;;21.55;;
25609;SDS011;13479;49.044;8.716;2023-12-14T07:13:36;33.33;;;18.43;;
25609;SDS011;13479;49.044;8.716;2023-12-14T07:16:03;48.43;;;23.50;;
25609;SDS011;13479;49.044;8.716;2023-12-14T07:18:35;38.57;;;19.20;;
25609;SDS011;13479;49.044;8.716;2023-12-14T07:21:04;46.45;;;20.83;;
25609;SDS011;13479;49.044;8.716;2023-12-14T07:23:30;60.53;;;24.60;;
25609;SDS011;13479;49.044;8.716;2023-12-14T07:25:56;31.80;;;16.10;;
25609;SDS011;13479;49.044;8.716;2023-12-14T07:28:21;59.17;;;24.23;;
25609;SDS011;13479;49.044;8.716;2023-12-14T07:30:47;42.37;;;20.30;;
25609;SDS011;13479;49.044;8.716;2023-12-14T07:33:12;53.27;;;21.83;;
25609;SDS011;13479;49.044;8.716;2023-12-14T07:35:38;39.10;;;18.58;;
25609;SDS011;13479;49.044;8.716;2023-12-14T07:38:04;37.00;;;18.90;;
25609;SDS011;13479;49.044;8.716;2023-12-14T07:40:29;33.83;;;16.83;;
25609;SDS011;13479;49.044;8.716;2023-12-14T07:42:54;43.28;;;19.42;;
25609;SDS011;13479;49.044;8.716;2023-12-14T07:45:19;45.47;;;20.35;;
25609;SDS011;13479;49.044;8.716;2023-12-14T07:47:45;40.50;;;19.67;;
25609;SDS011;13479;49.044;8.716;2023-12-14T07:50:11;50.40;;;21.83;;
25609;SDS011;13479;49.044;8.716;2023-12-14T07:52:37;54.95;;;22.83;;
25609;SDS011;13479;49.044;8.716;2023-12-14T07:55:02;72.55;;;26.65;;
25609;SDS011;13479;49.044;8.716;2023-12-14T07:57:28;48.45;;;21.23;;
25609;SDS011;13479;49.044;8.716;2023-12-14T07:59:53;31.63;;;16.40;;
25609;SDS011;13479;49.044;8.716;2023-12-14T08:02:18;35.60;;;18.45;;
25609;SDS011;13479;49.044;8.716;2023-12-14T08:04:44;47.42;;;20.05;;
25609;SDS011;13479;49.044;8.716;2023-12-14T08:07:09;37.22;;;18.95;;
25609;SDS011;13479;49.044;8.716;2023-12-14T08:09:34;46.80;;;21.03;;
25609;SDS011;13479;49.044;8.716;2023-12-14T08:11:59;30.20;;;16.57;;
25609;SDS011;13479;49.044;8.716;2023-12-14T08:14:25;41.37;;;18.77;;
25609;SDS011;13479;49.044;8.716;2023-12-14T08:16:50;38.78;;;18.38;;
25609;SDS011;13479;49.044;8.716;2023-12-14T08:19:15;49.35;;;20.63;;
25609;SDS011;13479;49.044;8.716;2023-12-14T08:21:41;36.65;;;17.75;;
25609;SDS011;13479;49.044;8.716;2023-12-14T08:24:06;36.30;;;17.75;;
25609;SDS011;13479;49.044;8.716;2023-12-14T08:26:32;35.80;;;18.05;;
25609;SDS011;13479;49.044;8.716;2023-12-14T08:28:57;46.95;;;21.13;;
25609;SDS011;13479;49.044;8.716;2023-12-14T08:31:23;37.63;;;16.92;;
25609;SDS011;13479;49.044;8.716;2023-12-14T08:33:49;38.70;;;18.10;;
25609;SDS011;13479;49.044;8.716;2023-12-14T08:36:15;32.45;;;17.55;;
25609;SDS011;13479;49.044;8.716;2023-12-14T08:38:41;28.80;;;15.48;;
25609;SDS011;13479;49.044;8.716;2023-12-14T08:41:06;26.88;;;15.93;;
25609;SDS011;13479;49.044;8.716;2023-12-14T08:43:32;44.25;;;19.50;;
25609;SDS011;13479;49.044;8.716;2023-12-14T08:45:57;27.52;;;14.95;;
25609;SDS011;13479;49.044;8.716;2023-12-14T08:48:22;37.60;;;17.10;;
25609;SDS011;13479;49.044;8.716;2023-12-14T08:50:48;34.97;;;17.80;;
25609;SDS011;13479;49.044;8.716;2023-12-14T08:53:14;31.33;;;15.98;;
25609;SDS011;13479;49.044;8.716;2023-12-14T08:55:39;32.97;;;16.45;;
25609;SDS011;13479;49.044;8.716;2023-12-14T08:58:05;31.27;;;17.52;;
25609;SDS011;13479;49.044;8.716;2023-12-14T09:00:30;31.02;;;15.80;;
25609;SDS011;13479;49.044;8.716;2023-12-14T09:02:55;23.30;;;14.18;;
25609;SDS011;13479;49.044;8.716;2023-12-14T09:05:21;26.85;;;15.50;;
25609;SDS011;13479;49.044;8.716;2023-12-14T09:07:46;27.23;;;16.20;;
25609;SDS011;13479;49.044;8.716;2023-12-14T09:10:12;23.10;;;14.52;;
25609;SDS011;13479;49.044;8.716;2023-12-14T09:12:37;29.75;;;16.45;;
25609;SDS011;13479;49.044;8.716;2023-12-14T09:15:03;25.88;;;14.60;;
25609;SDS011;13479;49.044;8.716;2023-12-14T09:17:29;29.25;;;16.15;;
25609;SDS011;13479;49.044;8.716;2023-12-14T09:19:58;24.00;;;14.15;;
25609;SDS011;13479;49.044;8.716;2023-12-14T09:22:24;27.45;;;15.85;;
25609;SDS011;13479;49.044;8.716;2023-12-14T09:24:49;22.08;;;12.70;;
25609;SDS011;13479;49.044;8.716;2023-12-14T09:27:15;21.55;;;12.93;;
25609;SDS011;13479;49.044;8.716;2023-12-14T09:29:40;22.92;;;12.82;;
25609;SDS011;13479;49.044;8.716;2023-12-14T09:32:07;19.83;;;11.90;;
25609;SDS011;13479;49.044;8.716;2023-12-14T09:34:33;20.85;;;12.35;;
25609;SDS011;13479;49.044;8.716;2023-12-14T09:36:58;21.25;;;13.38;;
25609;SDS011;13479;49.044;8.716;2023-12-14T09:39:24;23.48;;;13.70;;
25609;SDS011;13479;49.044;8.716;2023-12-14T09:41:50;23.20;;;13.10;;
25609;SDS011;13479;49.044;8.716;2023-12-14T09:44:15;16.73;;;11.13;;
25609;SDS011;13479;49.044;8.716;2023-12-14T09:46:41;25.88;;;14.13;;
25609;SDS011;13479;49.044;8.716;2023-12-14T09:49:14;19.23;;;11.38;;
25609;SDS011;13479;49.044;8.716;2023-12-14T09:51:40;18.17;;;11.88;;
25609;SDS011;13479;49.044;8.716;2023-12-14T09:54:06;28.83;;;16.08;;
25609;SDS011;13479;49.044;8.716;2023-12-14T09:56:31;25.40;;;13.93;;
25609;SDS011;13479;49.044;8.716;2023-12-14T09:58:57;17.40;;;11.43;;
25609;SDS011;13479;49.044;8.716;2023-12-14T10:01:23;19.83;;;12.13;;
25609;SDS011;13479;49.044;8.716;2023-12-14T10:03:50;29.35;;;15.45;;
25609;SDS011;13479;49.044;8.716;2023-12-14T10:06:32;20.60;;;12.07;;
25609;SDS011;13479;49.044;8.716;2023-12-14T10:08:58;18.92;;;11.20;;
25609;SDS011;13479;49.044;8.716;2023-12-14T10:11:23;21.63;;;13.00;;
25609;SDS011;13479;49.044;8.716;2023-12-14T10:13:49;20.08;;;10.80;;
25609;SDS011;13479;49.044;8.716;2023-12-14T10:16:26;19.00;;;11.52;;
25609;SDS011;13479;49.044;8.716;2023-12-14T10:18:59;20.48;;;11.23;;
25609;SDS011;13479;49.044;8.716;2023-12-14T10:21:28;15.13;;;9.07;;
25609;SDS011;13479;49.044;8.716;2023-12-14T10:23:57;14.93;;;9.68;;
25609;SDS011;13479;49.044;8.716;2023-12-14T10:26:23;16.55;;;9.70;;
25609;SDS011;13479;49.044;8.716;2023-12-14T10:28:50;19.42;;;11.75;;
25609;SDS011;13479;49.044;8.716;2023-12-14T10:31:20;17.55;;;10.27;;
25609;SDS011;13479;49.044;8.716;2023-12-14T10:33:46;17.33;;;10.25;;
25609;SDS011;13479;49.044;8.716;2023-12-14T10:36:17;19.52;;;11.73;;
25609;SDS011;13479;49.044;8.716;2023-12-14T10:38:44;14.65;;;9.27;;
25609;SDS011;13479;49.044;8.716;2023-12-14T10:41:13;16.70;;;10.43;;
25609;SDS011;13479;49.044;8.716;2023-12-14T10:43:39;15.98;;;8.50;;
25609;SDS011;13479;49.044;8.716;2023-12-14T10:46:06;14.60;;;8.43;;
25609;SDS011;13479;49.044;8.716;2023-12-14T10:48:34;17.42;;;9.60;;
25609;SDS011;13479;49.044;8.716;2023-12-14T10:51:01;13.00;;;8.20;;
25609;SDS011;13479;49.044;8.716;2023-12-14T10:53:27;10.38;;;6.82;;
25609;SDS011;13479;49.044;8.716;2023-12-14T10:55:53;11.52;;;6.10;;
25609;SDS011;13479;49.044;8.716;2023-12-14T10:58:19;13.07;;;7.03;;
25609;SDS011;13479;49.044;8.716;2023-12-14T11:00:57;10.00;;;6.53;;
25609;SDS011;13479;49.044;8.716;2023-12-14T11:03:24;10.60;;;5.93;;
25609;SDS011;13479;49.044;8.716;2023-12-14T11:05:51;14.25;;;6.55;;
25609;SDS011;13479;49.044;8.716;2023-12-14T11:08:17;12.13;;;7.65;;
25609;SDS011;13479;49.044;8.716;2023-12-14T11:10:43;11.38;;;7.13;;
25609;SDS011;13479;49.044;8.716;2023-12-14T11:13:20;13.70;;;7.35;;
25609;SDS011;13479;49.044;8.716;2023-12-14T11:15:50;11.07;;;5.78;;
25609;SDS011;13479;49.044;8.716;2023-12-14T11:18:20;6.97;;;4.80;;
25609;SDS011;13479;49.044;8.716;2023-12-14T11:23:16;9.35;;;4.60;;
25609;SDS011;13479;49.044;8.716;2023-12-14T11:25:51;11.88;;;6.10;;
25609;SDS011;13479;49.044;8.716;2023-12-14T11:28:19;7.93;;;4.88;;
25609;SDS011;13479;49.044;8.716;2023-12-14T11:30:45;6.80;;;4.25;;
25609;SDS011;13479;49.044;8.716;2023-12-14T11:33:14;6.97;;;4.43;;
25609;SDS011;13479;49.044;8.716;2023-12-14T11:35:42;8.75;;;5.88;;
25609;SDS011;13479;49.044;8.716;2023-12-14T11:38:08;7.88;;;5.18;;
25609;SDS011;13479;49.044;8.716;2023-12-14T11:40:38;7.70;;;5.03;;
25609;SDS011;13479;49.044;8.716;2023-12-14T11:43:04;7.00;;;4.50;;
25609;SDS011;13479;49.044;8.716;2023-12-14T11:45:36;13.63;;;6.57;;
25609;SDS011;13479;49.044;8.716;2023-12-14T11:48:06;11.40;;;7.18;;
25609;SDS011;13479;49.044;8.716;2023-12-14T11:50:35;11.93;;;7.30;;
25609;SDS011;13479;49.044;8.716;2023-12-14T11:53:01;12.75;;;6.35;;
25609;SDS011;13479;49.044;8.716;2023-12-14T11:55:28;15.27;;;7.70;;
25609;SDS011;13479;49.044;8.716;2023-12-14T11:57:55;11.77;;;7.50;;
25609;SDS011;13479;49.044;8.716;2023-12-14T12:00:27;14.13;;;8.15;;
25609;SDS011;13479;49.044;8.716;2023-12-14T12:03:36;16.15;;;8.13;;
25609;SDS011;13479;49.044;8.716;2023-12-14T12:05:50;13.38;;;8.52;;
25609;SDS011;13479;49.044;8.716;2023-12-14T12:08:19;13.85;;;7.20;;
25609;SDS011;13479;49.044;8.716;2023-12-14T12:10:46;11.02;;;6.72;;
25609;SDS011;13479;49.044;8.716;2023-12-14T12:13:13;11.48;;;6.65;;
25609;SDS011;13479;49.044;8.716;2023-12-14T12:15:40;12.07;;;6.70;;
25609;SDS011;13479;49.044;8.716;2023-12-14T12:18:06;10.40;;;6.55;;
25609;SDS011;13479;49.044;8.716;2023-12-14T12:20:36;12.50;;;7.47;;
25609;SDS011;13479;49.044;8.716;2023-12-14T12:23:02;10.93;;;6.60;;
25609;SDS011;13479;49.044;8.716;2023-12-14T12:25:30;11.60;;;6.95;;
25609;SDS011;13479;49.044;8.716;2023-12-14T12:28:00;14.60;;;8.60;;
25609;SDS011;13479;49.044;8.716;2023-12-14T12:30:26;12.38;;;6.35;;
25609;SDS011;13479;49.044;8.716;2023-12-14T12:32:52;14.43;;;7.60;;
25609;SDS011;13479;49.044;8.716;2023-12-14T12:35:21;11.95;;;7.30;;
25609;SDS011;13479;49.044;8.716;2023-12-14T12:37:47;16.63;;;8.40;;
25609;SDS011;13479;49.044;8.716;2023-12-14T12:40:18;15.25;;;8.20;;
25609;SDS011;13479;49.044;8.716;2023-12-14T12:42:44;16.27;;;8.50;;
25609;SDS011;13479;49.044;8.716;2023-12-14T12:45:10;13.52;;;8.07;;
25609;SDS011;13479;49.044;8.716;2023-12-14T12:47:35;13.60;;;8.25;;
25609;SDS011;13479;49.044;8.716;2023-12-14T12:50:01;16.63;;;9.55;;
25609;SDS011;13479;49.044;8.716;2023-12-14T12:52:26;13.40;;;8.70;;
25609;SDS011;13479;49.044;8.716;2023-12-14T12:54:52;13.60;;;8.18;;
25609;SDS011;13479;49.044;8.716;2023-12-14T12:57:17;15.77;;;8.93;;
25609;SDS011;13479;49.044;8.716;2023-12-14T12:59:42;16.35;;;9.55;;
25609;SDS011;13479;49.044;8.716;2023-12-14T13:02:08;18.70;;;10.85;;
25609;SDS011;13479;49.044;8.716;2023-12-14T13:04:33;12.77;;;7.80;;
25609;SDS011;13479;49.044;8.716;2023-12-14T13:06:58;17.27;;;8.98;;
25609;SDS011;13479;49.044;8.716;2023-12-14T13:09:27;14.90;;;8.48;;
25609;SDS011;13479;49.044;8.716;2023-12-14T13:11:52;14.70;;;8.50;;
25609;SDS011;13479;49.044;8.716;2023-12-14T13:14:17;17.42;;;10.63;;
25609;SDS011;13479;49.044;8.716;2023-12-14T13:16:43;13.38;;;8.50;;
25609;SDS011;13479;49.044;8.716;2023-12-14T13:19:08;13.18;;;7.72;;
25609;SDS011;13479;49.044;8.716;2023-12-14T13:21:34;14.18;;;8.20;;
25609;SDS011;13479;49.044;8.716;2023-12-14T13:24:00;14.77;;;8.15;;
25609;SDS011;13479;49.044;8.716;2023-12-14T13:26:25;17.15;;;10.20;;
25609;SDS011;13479;49.044;8.716;2023-12-14T13:28:51;15.65;;;7.88;;
25609;SDS011;13479;49.044;8.716;2023-12-14T13:31:17;12.40;;;7.57;;
25609;SDS011;13479;49.044;8.716;2023-12-14T13:33:42;13.90;;;8.18;;
25609;SDS011;13479;49.044;8.716;2023-12-14T13:36:08;13.27;;;7.45;;
25609;SDS011;13479;49.044;8.716;2023-12-14T13:38:34;17.00;;;9.25;;
25609;SDS011;13479;49.044;8.716;2023-12-14T13:41:01;14.20;;;7.95;;
25609;SDS011;13479;49.044;8.716;2023-12-14T13:43:29;16.25;;;8.52;;
25609;SDS011;13479;49.044;8.716;2023-12-14T13:45:54;16.65;;;9.45;;
25609;SDS011;13479;49.044;8.716;2023-12-14T13:48:23;13.07;;;7.93;;
25609;SDS011;13479;49.044;8.716;2023-12-14T13:50:49;15.82;;;8.43;;
25609;SDS011;13479;49.044;8.716;2023-12-14T13:53:14;13.27;;;7.38;;
25609;SDS011;13479;49.044;8.716;2023-12-14T13:55:40;13.25;;;7.13;;
25609;SDS011;13479;49.044;8.716;2023-12-14T13:58:05;13.15;;;7.20;;
25609;SDS011;13479;49.044;8.716;2023-12-14T14:00:30;15.18;;;7.47;;
25609;SDS011;13479;49.044;8.716;2023-12-14T14:02:56;10.80;;;6.45;;
25609;SDS011;13479;49.044;8.716;2023-12-14T14:05:22;11.93;;;6.78;;
25609;SDS011;13479;49.044;8.716;2023-12-14T14:07:47;12.75;;;7.38;;
25609;SDS011;13479;49.044;8.716;2023-12-14T14:10:12;14.68;;;7.18;;
25609;SDS011;13479;49.044;8.716;2023-12-14T14:12:38;14.13;;;6.55;;
25609;SDS011;13479;49.044;8.716;2023-12-14T14:15:03;13.35;;;6.25;;
25609;SDS011;13479;49.044;8.716;2023-12-14T14:17:30;14.48;;;7.40;;
25609;SDS011;13479;49.044;8.716;2023-12-14T14:19:55;10.38;;;6.43;;
25609;SDS011;13479;49.044;8.716;2023-12-14T14:22:20;12.82;;;7.35;;
25609;SDS011;13479;49.044;8.716;2023-12-14T14:24:46;12.80;;;7.60;;
25609;SDS011;13479;49.044;8.716;2023-12-14T14:27:11;13.95;;;6.50;;
25609;SDS011;13479;49.044;8.716;2023-12-14T14:29:36;13.05;;;7.20;;
25609;SDS011;13479;49.044;8.716;2023-12-14T14:32:01;14.38;;;7.95;;
25609;SDS011;13479;49.044;8.716;2023-12-14T14:34:27;13.95;;;8.50;;
25609;SDS011;13479;49.044;8.716;2023-12-14T14:36:52;12.82;;;7.40;;
25609;SDS011;13479;49.044;8.716;2023-12-14T14:39:17;12.30;;;7.40;;
25609;SDS011;13479;49.044;8.716;2023-12-14T14:41:43;12.52;;;7.32;;
25609;SDS011;13479;49.044;8.716;2023-12-14T14:44:10;12.77;;;7.30;;
25609;SDS011;13479;49.044;8.716;2023-12-14T14:46:35;15.38;;;8.05;;
25609;SDS011;13479;49.044;8.716;2023-12-14T14:49:00;13.50;;;7.30;;
25609;SDS011;13479;49.044;8.716;2023-12-14T14:51:27;14.98;;;7.65;;
25609;SDS011;13479;49.044;8.716;2023-12-14T14:53:54;14.50;;;7.60;;
25609;SDS011;13479;49.044;8.716;2023-12-14T14:56:22;12.93;;;7.97;;
25609;SDS011;13479;49.044;8.716;2023-12-14T14:58:48;17.13;;;9.40;;
25609;SDS011;13479;49.044;8.716;2023-12-14T15:01:13;12.45;;;7.30;;
25609;SDS011;13479;49.044;8.716;2023-12-14T15:03:38;18.67;;;8.15;;
25609;SDS011;13479;49.044;8.716;2023-12-14T15:06:04;16.30;;;8.63;;
25609;SDS011;13479;49.044;8.716;2023-12-14T15:08:29;20.13;;;8.20;;
25609;SDS011;13479;49.044;8.716;2023-12-14T15:10:54;16.08;;;8.88;;
25609;SDS011;13479;49.044;8.716;2023-12-14T15:13:23;14.63;;;9.00;;
25609;SDS011;13479;49.044;8.716;2023-12-14T15:15:48;16.25;;;8.57;;
25609;SDS011;13479;49.044;8.716;2023-12-14T15:18:14;12.70;;;7.07;;
25609;SDS011;13479;49.044;8.716;2023-12-14T15:20:39;13.25;;;7.97;;
25609;SDS011;13479;49.044;8.716;2023-12-14T15:23:05;12.18;;;7.28;;
25609;SDS011;13479;49.044;8.716;2023-12-14T15:25:33;16.20;;;7.45;;
25609;SDS011;13479;49.044;8.716;2023-12-14T15:28:01;13.85;;;7.22;;
25609;SDS011;13479;49.044;8.716;2023-12-14T15:30:26;15.20;;;7.93;;
25609;SDS011;13479;49.044;8.716;2023-12-14T15:32:51;11.57;;;6.78;;
25609;SDS011;13479;49.044;8.716;2023-12-14T15:35:16;14.63;;;8.13;;
25609;SDS011;13479;49.044;8.716;2023-12-14T15:37:42;14.73;;;7.75;;
25609;SDS011;13479;49.044;8.716;2023-12-14T15:40:07;13.82;;;7.30;;
25609;SDS011;13479;49.044;8.716;2023-12-14T15:42:34;16.43;;;9.20;;
25609;SDS011;13479;49.044;8.716;2023-12-14T15:44:59;15.52;;;9.15;;
25609;SDS011;13479;49.044;8.716;2023-12-14T15:47:24;16.73;;;9.50;;
25609;SDS011;13479;49.044;8.716;2023-12-14T15:49:50;13.65;;;7.70;;
25609;SDS011;13479;49.044;8.716;2023-12-14T15:52:15;13.18;;;8.10;;
25609;SDS011;13479;49.044;8.716;2023-12-14T15:54:40;13.80;;;7.22;;
25609;SDS011;13479;49.044;8.716;2023-12-14T15:57:06;16.40;;;8.25;;
25609;SDS011;13479;49.044;8.716;2023-12-14T15:59:31;13.77;;;8.27;;
25609;SDS011;13479;49.044;8.716;2023-12-14T16:01:57;20.58;;;11.15;;
25609;SDS011;13479;49.044;8.716;2023-12-14T16:04:23;28.55;;;14.70;;
25609;SDS011;13479;49.044;8.716;2023-12-14T16:06:48;19.50;;;10.05;;
25609;SDS011;13479;49.044;8.716;2023-12-14T16:09:14;13.23;;;7.35;;
25609;SDS011;13479;49.044;8.716;2023-12-14T16:11:40;14.00;;;7.85;;
25609;SDS011;13479;49.044;8.716;2023-12-14T16:14:06;12.90;;;6.88;;
25609;SDS011;13479;49.044;8.716;2023-12-14T16:16:31;16.77;;;7.65;;
25609;SDS011;13479;49.044;8.716;2023-12-14T16:18:57;13.68;;;7.35;;
25609;SDS011;13479;49.044;8.716;2023-12-14T16:21:22;13.43;;;7.60;;
25609;SDS011;13479;49.044;8.716;2023-12-14T16:23:47;16.53;;;8.40;;
25609;SDS011;13479;49.044;8.716;2023-12-14T16:26:12;18.13;;;9.00;;
25609;SDS011;13479;49.044;8.716;2023-12-14T16:28:38;15.13;;;8.45;;
25609;SDS011;13479;49.044;8.716;2023-12-14T16:31:04;15.50;;;7.28;;
25609;SDS011;13479;49.044;8.716;2023-12-14T16:33:30;16.13;;;7.97;;
25609;SDS011;13479;49.044;8.716;2023-12-14T16:35:56;18.13;;;9.35;;
25609;SDS011;13479;49.044;8.716;2023-12-14T16:38:21;18.60;;;9.52;;
25609;SDS011;13479;49.044;8.716;2023-12-14T16:40:47;16.50;;;8.50;;
25609;SDS011;13479;49.044;8.716;2023-12-14T16:43:13;17.92;;;8.25;;
25609;SDS011;13479;49.044;8.716;2023-12-14T16:45:44;16.57;;;7.90;;
25609;SDS011;13479;49.044;8.716;2023-12-14T16:48:10;16.83;;;8.40;;
25609;SDS011;13479;49.044;8.716;2023-12-14T16:50:39;17.50;;;7.97;;
25609;SDS011;13479;49.044;8.716;2023-12-14T16:53:05;16.87;;;6.73;;
25609;SDS011;13479;49.044;8.716;2023-12-14T16:55:31;14.67;;;7.03;;
25609;SDS011;13479;49.044;8.716;2023-12-14T16:57:56;15.40;;;7.07;;
25609;SDS011;13479;49.044;8.716;2023-12-14T17:00:21;15.90;;;7.27;;
25609;SDS011;13479;49.044;8.716;2023-12-14T17:02:48;20.67;;;9.48;;
25609;SDS011;13479;49.044;8.716;2023-12-14T17:05:13;18.20;;;7.75;;
25609;SDS011;13479;49.044;8.716;2023-12-14T17:07:39;20.17;;;8.53;;
25609;SDS011;13479;49.044;8.716;2023-12-14T17:10:05;13.87;;;6.30;;
25609;SDS011;13479;49.044;8.716;2023-12-14T17:12:31;13.33;;;6.00;;
25609;SDS011;13479;49.044;8.716;2023-12-14T17:14:56;14.13;;;6.23;;
25609;SDS011;13479;49.044;8.716;2023-12-14T17:17:24;18.07;;;7.37;;
25609;SDS011;13479;49.044;8.716;2023-12-14T17:19:52;16.53;;;7.23;;
25609;SDS011;13479;49.044;8.716;2023-12-14T17:22:17;14.02;;;6.80;;
25609;SDS011;13479;49.044;8.716;2023-12-14T17:24:43;15.07;;;6.50;;
25609;SDS011;13479;49.044;8.716;2023-12-14T17:27:08;12.87;;;6.70;;
25609;SDS011;13479;49.044;8.716;2023-12-14T17:29:34;14.63;;;7.53;;
25609;SDS011;13479;49.044;8.716;2023-12-14T17:32:00;11.67;;;6.23;;
25609;SDS011;13479;49.044;8.716;2023-12-14T17:34:28;15.50;;;7.00;;
25609;SDS011;13479;49.044;8.716;2023-12-14T17:36:56;12.30;;;5.47;;
25609;SDS011;13479;49.044;8.716;2023-12-14T17:39:22;10.63;;;5.23;;
25609;SDS011;13479;49.044;8.716;2023-12-14T17:41:47;11.93;;;6.07;;
25609;SDS011;13479;49.044;8.716;2023-12-14T17:44:13;14.80;;;6.93;;
25609;SDS011;13479;49.044;8.716;2023-12-14T17:46:41;12.23;;;5.83;;
25609;SDS011;13479;49.044;8.716;2023-12-14T17:49:07;14.63;;;7.47;;
25609;SDS011;13479;49.044;8.716;2023-12-14T17:51:38;13.33;;;6.80;;
25609;SDS011;13479;49.044;8.716;2023-12-14T17:54:05;11.50;;;5.83;;
25609;SDS011;13479;49.044;8.716;2023-12-14T17:56:30;12.20;;;6.57;;
25609;SDS011;13479;49.044;8.716;2023-12-14T17:58:59;11.27;;;6.47;;
25609;SDS011;13479;49.044;8.716;2023-12-14T18:01:27;11.93;;;5.77;;
25609;SDS011;13479;49.044;8.716;2023-12-14T18:03:53;14.10;;;6.90;;
25609;SDS011;13479;49.044;8.716;2023-12-14T18:06:18;12.10;;;6.20;;
25609;SDS011;13479;49.044;8.716;2023-12-14T18:08:43;15.40;;;6.80;;
25609;SDS011;13479;49.044;8.716;2023-12-14T18:11:09;15.93;;;7.40;;
25609;SDS011;13479;49.044;8.716;2023-12-14T18:13:35;10.73;;;4.95;;
25609;SDS011;13479;49.044;8.716;2023-12-14T18:16:00;11.90;;;6.30;;
25609;SDS011;13479;49.044;8.716;2023-12-14T18:18:27;13.60;;;6.43;;
25609;SDS011;13479;49.044;8.716;2023-12-14T18:20:52;14.47;;;6.67;;
25609;SDS011;13479;49.044;8.716;2023-12-14T18:23:18;12.23;;;6.33;;
25609;SDS011;13479;49.044;8.716;2023-12-14T18:25:43;13.30;;;6.55;;
25609;SDS011;13479;49.044;8.716;2023-12-14T18:28:11;13.77;;;6.47;;
25609;SDS011;13479;49.044;8.716;2023-12-14T18:30:37;12.30;;;6.13;;
25609;SDS011;13479;49.044;8.716;2023-12-14T18:33:02;11.37;;;5.97;;
25609;SDS011;13479;49.044;8.716;2023-12-14T18:35:27;11.90;;;5.50;;
25609;SDS011;13479;49.044;8.716;2023-12-14T18:37:53;13.70;;;6.20;;
25609;SDS011;13479;49.044;8.716;2023-12-14T18:40:18;9.80;;;5.10;;
25609;SDS011;13479;49.044;8.716;2023-12-14T18:42:47;10.00;;;5.67;;
25609;SDS011;13479;49.044;8.716;2023-12-14T18:45:13;14.45;;;4.88;;
25609;SDS011;13479;49.044;8.716;2023-12-14T18:47:38;10.07;;;4.37;;
25609;SDS011;13479;49.044;8.716;2023-12-14T18:50:03;8.65;;;3.90;;
25609;SDS011;13479;49.044;8.716;2023-12-14T18:52:30;9.17;;;4.63;;
25609;SDS011;13479;49.044;8.716;2023-12-14T18:54:55;9.00;;;4.47;;
25609;SDS011;13479;49.044;8.716;2023-12-14T18:57:21;7.83;;;4.17;;
25609;SDS011;13479;49.044;8.716;2023-12-14T18:59:46;8.87;;;4.47;;
25609;SDS011;13479;49.044;8.716;2023-12-14T19:02:11;8.07;;;4.10;;
25609;SDS011;13479;49.044;8.716;2023-12-14T19:04:39;6.63;;;3.63;;
25609;SDS011;13479;49.044;8.716;2023-12-14T19:07:04;7.10;;;4.03;;
25609;SDS011;13479;49.044;8.716;2023-12-14T19:09:30;7.93;;;3.87;;
25609;SDS011;13479;49.044;8.716;2023-12-14T19:11:55;6.97;;;3.53;;
25609;SDS011;13479;49.044;8.716;2023-12-14T19:14:20;5.97;;;3.47;;
25609;SDS011;13479;49.044;8.716;2023-12-14T19:16:46;6.63;;;3.30;;
25609;SDS011;13479;49.044;8.716;2023-12-14T19:19:11;6.70;;;3.30;;
25609;SDS011;13479;49.044;8.716;2023-12-14T19:21:36;4.97;;;3.03;;
25609;SDS011;13479;49.044;8.716;2023-12-14T19:24:01;5.57;;;3.20;;
25609;SDS011;13479;49.044;8.716;2023-12-14T19:26:27;5.67;;;2.87;;
25609;SDS011;13479;49.044;8.716;2023-12-14T19:28:53;5.90;;;3.33;;